Time;durP1;ratioP1;P1;durP2;ratioP2;P2;SDS_P1;SDS_P2;PMS_P1;PMS_P2;Temp;Humidity;BMP_temperature;BMP_pressure;BME280_temperature;BME280_humidity;BME280_pressure;Samples;Min_cycle;Max_cycle;Signal;HPM_P1;HPM_P2
2023/04/08 00:09:21;;;;;;;5.45;2.42;;;15.20;35.90;;;;;;20838920;28;20049;-57
2023/04/08 00:19:22;;;;;;;7.55;3.28;;;14.90;36.40;;;;;;20836647;28;20415;-56
2023/04/08 00:29:24;;;;;;;5.32;2.33;;;14.70;36.90;;;;;;20837136;28;20088;-56
2023/04/08 00:39:25;;;;;;;7.43;3.40;;;14.70;37.60;;;;;;20836382;28;20099;-58
2023/04/08 00:49:27;;;;;;;10.10;4.20;;;14.50;37.70;;;;;;20835313;28;20045;-57
2023/04/08 00:59:29;;;;;;;9.27;4.47;;;14.40;37.70;;;;;;20834060;28;20057;-57
2023/04/08 01:09:37;;;;;;;7.55;3.67;;;14.50;37.30;;;;;;20832768;28;20079;-57
2023/04/08 01:19:43;;;;;;;8.27;2.95;;;14.70;37.50;;;;;;20831871;28;20057;-56
2023/04/08 01:29:47;;;;;;;3.75;2.05;;;14.30;38.10;;;;;;20832672;28;20061;-57
2023/04/08 01:39:50;;;;;;;6.73;2.57;;;14.00;38.40;;;;;;20831841;28;20041;-57
2023/04/08 01:49:52;;;;;;;4.97;2.50;;;13.70;38.70;;;;;;20831675;28;20395;-56
2023/04/08 02:00:00;;;;;;;5.57;2.42;;;13.60;38.60;;;;;;20830910;28;20079;-56
2023/04/08 02:10:02;;;;;;;9.18;2.83;;;13.80;38.00;;;;;;20830746;28;20557;-56
2023/04/08 02:20:22;;;;;;;9.85;3.55;;;14.00;37.50;;;;;;20844029;28;20115;-56
2023/04/08 02:30:26;;;;;;;7.68;2.35;;;14.20;37.20;;;;;;20845401;28;20053;-55
2023/04/08 02:40:29;;;;;;;;;;;14.30;36.50;;;;;;20844686;28;20045;-55
2023/04/08 02:50:31;;;;;;;6.85;2.72;;;14.10;37.80;;;;;;20844963;28;19921;-56
2023/04/08 03:00:32;;;;;;;4.38;2.35;;;13.50;39.50;;;;;;20843958;28;20474;-57
2023/04/08 03:10:34;;;;;;;7.13;3.10;;;13.10;40.30;;;;;;20842146;28;20053;-56
2023/04/08 03:20:35;;;;;;;5.93;2.30;;;12.80;41.00;;;;;;20841077;28;20053;-57
2023/04/08 03:30:37;;;;;;;6.82;2.75;;;12.80;41.10;;;;;;20841775;28;20045;-57
2023/04/08 03:40:38;;;;;;;6.97;2.40;;;12.70;41.20;;;;;;20841174;28;20384;-55
2023/04/08 03:50:39;;;;;;;5.40;2.70;;;12.70;41.10;;;;;;20839068;28;20049;-56
2023/04/08 04:00:41;;;;;;;4.80;1.73;;;12.40;41.50;;;;;;20839319;28;20052;-55
2023/04/08 04:10:42;;;;;;;6.32;1.90;;;12.30;42.00;;;;;;20839087;28;20514;-55
2023/04/08 04:20:44;;;;;;;4.60;1.80;;;12.20;42.40;;;;;;20836814;28;20053;-56
2023/04/08 04:30:45;;;;;;;3.67;1.98;;;12.00;42.60;;;;;;20837522;28;20395;-55
2023/04/08 04:40:46;;;;;;;6.45;1.45;;;11.90;42.70;;;;;;20835790;28;20048;-57
2023/04/08 04:51:00;;;;;;;4.65;1.88;;;11.80;43.00;;;;;;20834536;28;20050;-56
2023/04/08 05:01:01;;;;;;;3.38;1.70;;;11.70;43.10;;;;;;20834954;28;20475;-56
2023/04/08 05:11:03;;;;;;;3.15;1.60;;;11.60;43.30;;;;;;20834172;28;20162;-55
2023/04/08 05:21:04;;;;;;;3.53;1.70;;;11.40;44.00;;;;;;20832063;28;20415;-56
2023/04/08 05:31:06;;;;;;;5.43;1.60;;;11.20;44.70;;;;;;20831490;28;20053;-56
2023/04/08 05:41:07;;;;;;;5.85;1.88;;;11.20;45.30;;;;;;20830518;28;20140;-55
2023/04/08 05:51:13;;;;;;;2.58;1.50;;;11.10;45.00;;;;;;20830486;28;20072;-55
2023/04/08 06:01:15;;;;;;;6.20;1.63;;;11.00;45.10;;;;;;20829719;28;20096;-55
2023/04/08 06:11:17;;;;;;;3.22;1.60;;;11.00;45.10;;;;;;20829421;28;20057;-56
2023/04/08 06:21:18;;;;;;;6.20;1.50;;;10.90;45.00;;;;;;20828707;28;20050;-55
2023/04/08 06:31:19;;;;;;;6.13;1.80;;;10.90;45.10;;;;;;20829777;28;20467;-55
2023/04/08 06:41:21;;;;;;;4.95;1.67;;;11.00;45.40;;;;;;20828018;28;20052;-57
2023/04/08 06:51:22;;;;;;;5.20;1.55;;;11.10;45.30;;;;;;20828187;28;20053;-56
2023/04/08 07:01:24;;;;;;;7.05;2.35;;;11.30;44.50;;;;;;20834320;28;20046;-57
2023/04/08 07:11:25;;;;;;;4.10;1.80;;;11.70;44.10;;;;;;20841517;28;20061;-58
2023/04/08 07:21:26;;;;;;;3.55;1.75;;;12.20;43.20;;;;;;20841171;28;20462;-57
2023/04/08 07:31:28;;;;;;;3.80;2.20;;;12.50;42.40;;;;;;20841903;28;20446;-58
2023/04/08 07:41:29;;;;;;;11.63;2.67;;;13.00;41.90;;;;;;20840458;28;20052;-56
2023/04/08 07:51:30;;;;;;;9.45;3.00;;;13.50;40.20;;;;;;20839892;28;20099;-57
2023/04/08 08:01:33;;;;;;;7.28;2.58;;;14.10;38.40;;;;;;20838371;28;20049;-57
2023/04/08 08:11:35;;;;;;;5.20;2.10;;;14.60;38.20;;;;;;20836578;28;20414;-55
2023/04/08 08:21:38;;;;;;;4.50;2.10;;;15.00;36.80;;;;;;20837200;28;20482;-57
2023/04/08 08:31:39;;;;;;;6.60;2.40;;;15.40;34.50;;;;;;20837284;28;20045;-57
2023/04/08 08:41:41;;;;;;;5.18;2.40;;;15.70;34.20;;;;;;20836144;28;20046;-57
2023/04/08 08:51:45;;;;;;;4.32;2.05;;;16.20;33.50;;;;;;20833829;28;20049;-57
2023/04/08 09:01:47;;;;;;;5.15;2.20;;;16.60;31.80;;;;;;20834006;28;20049;-57
2023/04/08 09:11:48;;;;;;;3.20;2.00;;;17.00;30.70;;;;;;20832574;28;20046;-57
2023/04/08 09:22:07;;;;;;;6.45;2.50;;;17.30;30.10;;;;;;20832464;28;20534;-57
2023/04/08 09:32:09;;;;;;;4.55;2.38;;;17.80;30.00;;;;;;20830567;28;20053;-56
2023/04/08 09:42:11;;;;;;;4.05;2.15;;;18.00;28.90;;;;;;20830118;28;20103;-58
2023/04/08 09:52:45;;;;;;;4.68;2.20;;;18.20;28.80;;;;;;20831270;28;20479;-56
2023/04/08 10:03:14;;;;;;;4.82;2.25;;;18.50;28.40;;;;;;20830509;28;20072;-57
2023/04/08 10:13:15;;;;;;;4.80;2.40;;;18.60;29.00;;;;;;20829397;28;20499;-59
2023/04/08 10:23:17;;;;;;;4.60;2.00;;;19.10;28.10;;;;;;20830073;28;20057;-56
2023/04/08 10:33:28;;;;;;;5.60;2.10;;;19.40;26.70;;;;;;20829664;28;20053;-56
2023/04/08 10:43:33;;;;;;;4.38;2.15;;;19.70;25.30;;;;;;20844977;28;20430;-57
2023/04/08 10:53:38;;;;;;;4.78;1.65;;;20.10;25.40;;;;;;20844433;28;20072;-59
2023/04/08 11:03:41;;;;;;;2.97;1.70;;;20.50;25.20;;;;;;20843482;28;20041;-56
2023/04/08 11:13:44;;;;;;;;;;;20.70;24.00;;;;;;20841827;28;20107;-56
2023/04/08 11:23:48;;;;;;;2.47;1.50;;;21.00;23.20;;;;;;20840977;28;19925;-56
2023/04/08 11:33:54;;;;;;;2.88;1.10;;;21.40;22.20;;;;;;20840126;28;20050;-56
2023/04/08 11:43:56;;;;;;;2.40;1.40;;;21.60;22.10;;;;;;20839083;28;20049;-57
2023/04/08 11:53:57;;;;;;;2.38;1.00;;;21.90;22.60;;;;;;20840312;28;20497;-57
2023/04/08 12:04:00;;;;;;;4.78;1.42;;;22.20;21.70;;;;;;20837898;28;20056;-56
2023/04/08 12:14:02;;;;;;;2.90;1.30;;;22.40;21.20;;;;;;20838505;28;20049;-60
2023/04/08 12:24:03;;;;;;;6.13;1.85;;;22.60;21.50;;;;;;20837028;28;20045;-56
2023/04/08 12:34:05;;;;;;;3.63;1.52;;;22.80;21.20;;;;;;20836721;28;20121;-58
2023/04/08 12:44:07;;;;;;;3.70;1.40;;;23.10;21.20;;;;;;20835430;28;20450;-57
2023/04/08 12:54:08;;;;;;;6.85;2.15;;;23.30;20.90;;;;;;20835325;28;20053;-57
2023/04/08 13:04:09;;;;;;;2.63;1.90;;;23.50;20.70;;;;;;20833715;28;20073;-57
2023/04/08 13:14:12;;;;;;;3.45;1.80;;;23.80;20.50;;;;;;20832321;28;20053;-57
2023/04/08 13:24:13;;;;;;;3.47;1.40;;;23.70;20.30;;;;;;20833106;28;20163;-57
2023/04/08 13:34:15;;;;;;;4.03;2.40;;;23.80;20.40;;;;;;20832643;28;20128;-57
2023/04/08 13:44:16;;;;;;;4.60;1.60;;;24.20;20.10;;;;;;20830042;28;20049;-56
2023/04/08 13:54:17;;;;;;;3.83;1.63;;;24.70;19.50;;;;;;20829716;28;20053;-57
2023/04/08 14:04:20;;;;;;;2.83;1.45;;;24.40;19.60;;;;;;20830951;28;20042;-59
2023/04/08 14:14:21;;;;;;;4.45;1.70;;;24.40;19.50;;;;;;20842971;28;20057;-57
2023/04/08 14:24:23;;;;;;;1.37;0.83;;;24.60;20.00;;;;;;20847295;28;20430;-57
2023/04/08 14:34:24;;;;;;;2.67;1.98;;;24.60;19.90;;;;;;20846434;28;20124;-57
2023/04/08 14:44:25;;;;;;;4.40;1.63;;;24.60;19.60;;;;;;20844412;28;20049;-57
2023/04/08 14:54:27;;;;;;;4.57;1.70;;;24.60;19.40;;;;;;20844559;28;20049;-59
2023/04/08 15:04:28;;;;;;;2.83;1.65;;;24.80;19.10;;;;;;20841206;28;20045;-57
2023/04/08 15:14:29;;;;;;;2.75;1.40;;;24.80;19.30;;;;;;20841308;28;20053;-57
2023/04/08 15:24:31;;;;;;;3.20;1.40;;;24.80;19.20;;;;;;20840177;28;20402;-57
2023/04/08 15:34:32;;;;;;;1.92;1.27;;;25.00;19.80;;;;;;20839821;28;20050;-57
2023/04/08 15:44:34;;;;;;;2.63;0.93;;;24.90;19.40;;;;;;20840444;28;20049;-59
2023/04/08 15:54:35;;;;;;;3.60;1.30;;;25.00;19.30;;;;;;20838888;28;20060;-57
2023/04/08 16:04:36;;;;;;;3.80;1.23;;;24.90;19.50;;;;;;20837759;28;20053;-57
2023/04/08 16:14:38;;;;;;;3.97;1.17;;;24.90;19.50;;;;;;20837393;28;20396;-58
2023/04/08 16:24:39;;;;;;;2.10;1.33;;;24.90;19.70;;;;;;20837731;28;20402;-58
2023/04/08 16:34:40;;;;;;;2.57;1.23;;;25.00;19.50;;;;;;20836090;28;20491;-56
2023/04/08 16:44:42;;;;;;;3.78;1.33;;;24.90;19.90;;;;;;20835426;28;20045;-56
2023/04/08 16:54:44;;;;;;;2.40;1.10;;;24.70;19.90;;;;;;20833503;28;20041;-58
2023/04/08 17:04:48;;;;;;;1.83;0.90;;;24.60;19.60;;;;;;20832601;28;20045;-56
2023/04/08 17:14:50;;;;;;;5.00;1.55;;;24.40;19.70;;;;;;20831905;28;20058;-59
2023/04/08 17:24:51;;;;;;;5.37;1.70;;;24.30;20.30;;;;;;20831069;28;20048;-56
2023/04/08 17:34:53;;;;;;;3.70;1.90;;;24.20;20.40;;;;;;20831700;28;20072;-57
2023/04/08 17:44:57;;;;;;;4.07;1.50;;;24.20;20.90;;;;;;20829505;28;20053;-58
2023/04/08 17:55:00;;;;;;;6.47;1.95;;;24.10;20.20;;;;;;20830790;28;20045;-58
2023/04/08 18:05:02;;;;;;;2.87;1.43;;;24.00;20.60;;;;;;20829851;28;20103;-56
2023/04/08 18:15:04;;;;;;;;;;;23.80;20.80;;;;;;20828923;28;20049;-57
2023/04/08 18:25:05;;;;;;;3.83;1.80;;;23.60;20.90;;;;;;20828783;28;20386;-57
2023/04/08 18:35:07;;;;;;;4.43;2.00;;;23.30;21.00;;;;;;20828384;28;20479;-56
2023/04/08 18:45:08;;;;;;;3.42;1.77;;;23.00;21.40;;;;;;20828764;28;20371;-57
2023/04/08 18:55:10;;;;;;;5.07;1.80;;;22.80;21.60;;;;;;20831337;28;20049;-57
2023/04/08 19:05:11;;;;;;;4.10;1.90;;;22.60;21.60;;;;;;20841699;28;20041;-57
2023/04/08 19:15:13;;;;;;;7.55;2.63;;;22.40;21.60;;;;;;20841597;28;20101;-56
2023/04/08 19:25:15;;;;;;;7.20;2.90;;;22.20;21.80;;;;;;20841049;28;20048;-58
2023/04/08 19:35:17;;;;;;;8.43;2.53;;;22.00;22.20;;;;;;20841671;28;20111;-59
2023/04/08 19:45:18;;;;;;;5.72;3.60;;;21.70;22.60;;;;;;20841488;28;20505;-57
2023/04/08 19:55:20;;;;;;;12.45;4.35;;;21.60;23.00;;;;;;20840006;28;20533;-57
2023/04/08 20:05:21;;;;;;;13.32;5.43;;;21.20;23.80;;;;;;20837029;28;20053;-57
2023/04/08 20:15:23;;;;;;;7.45;4.00;;;21.00;23.90;;;;;;20837289;28;20425;-58
2023/04/08 20:25:24;;;;;;;7.53;3.13;;;21.00;23.70;;;;;;20836001;28;20046;-57
2023/04/08 20:35:26;;;;;;;7.40;3.80;;;20.80;23.60;;;;;;20835701;28;20053;-58
2023/04/08 20:45:27;;;;;;;7.32;3.60;;;20.70;23.70;;;;;;20834996;28;20053;-57
2023/04/08 20:55:28;;;;;;;9.57;5.93;;;20.70;24.00;;;;;;20835072;28;20054;-57
2023/04/08 21:05:30;;;;;;;10.95;4.78;;;20.50;24.40;;;;;;20833532;28;20064;-57
2023/04/08 21:15:31;;;;;;;9.27;4.65;;;20.40;25.10;;;;;;20831093;28;20046;-57
2023/04/08 21:25:33;;;;;;;9.85;4.20;;;20.10;25.50;;;;;;20831132;28;20502;-57
2023/04/08 21:35:34;;;;;;;6.50;3.20;;;19.70;26.10;;;;;;20831906;28;20045;-57
2023/04/08 21:45:35;;;;;;;6.38;2.85;;;19.50;26.40;;;;;;20831322;28;20050;-57
2023/04/08 21:55:37;;;;;;;6.38;2.75;;;19.30;27.20;;;;;;20831809;28;20049;-57
2023/04/08 22:05:38;;;;;;;7.53;2.95;;;19.10;28.10;;;;;;20831300;28;20553;-58
2023/04/08 22:15:40;;;;;;;6.82;3.15;;;18.90;28.40;;;;;;20829977;28;20115;-56
2023/04/08 22:25:41;;;;;;;9.15;3.55;;;18.70;28.60;;;;;;20830799;28;20052;-57
2023/04/08 22:35:42;;;;;;;5.57;2.90;;;18.60;29.00;;;;;;20841671;28;20103;-57
2023/04/08 22:45:43;;;;;;;8.18;3.17;;;18.40;29.40;;;;;;20845586;28;20045;-56
2023/04/08 22:55:45;;;;;;;4.97;2.50;;;18.20;30.10;;;;;;20845251;28;20494;-58
2023/04/08 23:05:46;;;;;;;8.90;2.80;;;18.10;30.70;;;;;;20844655;28;20580;-58
2023/04/08 23:15:47;;;;;;;8.88;2.85;;;17.80;31.30;;;;;;20843385;28;20049;-58
2023/04/08 23:25:49;;;;;;;7.55;2.40;;;17.50;32.00;;;;;;20843460;28;20502;-57
2023/04/08 23:35:51;;;;;;;5.55;2.22;;;17.20;32.50;;;;;;20841467;28;20050;-56
2023/04/08 23:45:52;;;;;;;5.05;2.00;;;17.10;33.00;;;;;;20841614;28;20096;-56
2023/04/08 23:55:53;;;;;;;3.42;1.80;;;16.90;33.80;;;;;;20841065;28;20053;-56
